Etusivu
METAR-TAF:

METAR-TAF

Lentoasemat :

Qingdao, Kiina

Leveyspiiri: 36-04N, Pituuspiiri: 120-20E, korkeus merenpinnasta: 77 m

Tämänhetkinen sää

Tämä raportti tehtiin 33 minuuttia sitten, kello 12.00 UTC
Tuuli 2 kn koillisesta
Lämpötila 28°C
Kosteus 55%
Ilmanpaine 998 hPa
Näkyvyys 10 km tai enemmän
ei pilviä alle 1500 m:ssä eikä cumulonimbus-pilviä

METAR: ZSQD 221200Z 04001MPS CAVOK 28/18 Q0998 NOSIG

Aika: 20:33 (12:33 UTC)

Sääennuste

Tämä raportti tehtiin 3 tuntia ja 32 minuuttia sitten, kello 09.01 UTC
Ennuste voimassa 22. päivästä klo 12 UTC - 23. päivään klo 12 UTC
Tuuli 6 kn etelästä/lounaasta
Näkyvyys: 6000 m
Tulossa
23. päivästä klo 02 UTC - 23. päivään klo 03 UTC
Tuuli 12 kn pohjoisen/luoteesta puuskistuen 25 kn:hen

TAF: ZSQD 220901Z 2212/2312 21003MPS 6000 NSC TX35/2306Z TN22/2220Z BECMG 2302/2303 33006G13MPS

Säähavainnot ja -ennusteet yli 4000 lentoasemalta (METAR- ja TAF-raportit).

Käytössä olevat sääasemat on merkitty karttaan keltaisilla ja punaisilla pisteillä.

Aseta hiiri pisteen päälle nähdäksesi sääaseman nimen.

Klikkaa sitten nähdäksesi säähavainnot ja -ennusteet.

Kartan vaihtaminen: klikkaa mustalla rastilla varustettuja vihreitä pisteitä, niin voit zoomata sisään; viivalla varustettua vihreää pistettä, niin voit zoomata ulos tai vihreitä nuolia, niin pääset viereisille kartoille.


METAR-TAF: